Time;durP1;ratioP1;P1;durP2;ratioP2;P2;SDS_P1;SDS_P2;PMS_P1;PMS_P2;Temp;Humidity;BMP_temperature;BMP_pressure;BME280_temperature;BME280_humidity;BME280_pressure;Samples;Min_cycle;Max_cycle;Signal;HPM_P1;HPM_P2
2022/06/22 00:08:26;;;;;;;8.60;4.70;;;;;;;16.20;76.10;101232.59;20954844;28;20050;-67
2022/06/22 00:18:50;;;;;;;9.10;5.00;;;;;;;16.11;74.91;101233.38;20944389;28;20047;-67
2022/06/22 00:29:22;;;;;;;12.82;5.28;;;;;;;15.96;76.58;101229.34;20955873;28;20477;-67
2022/06/22 00:39:51;;;;;;;6.47;4.88;;;;;;;15.74;77.41;101239.88;20949344;28;20055;-66
2022/06/22 00:50:19;;;;;;;13.93;7.15;;;;;;;15.66;75.85;101253.63;20940245;28;20063;-67
2022/06/22 01:01:19;;;;;;;10.40;5.53;;;;;;;15.72;78.32;101239.16;20944092;28;20040;-67
2022/06/22 01:22:56;;;;;;;9.07;4.72;;;;;;;15.34;77.27;101217.69;20970703;28;20377;-68
2022/06/22 01:33:24;;;;;;;11.43;4.40;;;;;;;15.27;77.22;101229.66;20946244;28;20040;-67
2022/06/22 01:43:56;;;;;;;5.93;4.13;;;;;;;15.13;77.30;101223.72;20946953;28;20493;-67
2022/06/22 01:54:26;;;;;;;;;;;;;;;14.99;82.09;101229.22;20949519;28;20049;-67
2022/06/22 02:05:04;;;;;;;8.45;4.30;;;;;;;14.81;77.27;101220.94;20947833;28;19931;-67
2022/06/22 02:15:49;;;;;;;7.68;4.07;;;;;;;14.69;79.64;101216.63;20969828;28;20055;-67
2022/06/22 02:26:26;;;;;;;7.88;3.97;;;;;;;14.61;78.87;101221.59;20936287;28;20048;-67
2022/06/22 02:36:51;;;;;;;5.63;3.85;;;;;;;14.43;77.57;101220.34;20941394;28;20083;-67
2022/06/22 02:47:27;;;;;;;13.18;4.88;;;;;;;14.41;77.58;101215.34;20933002;28;20063;-66
2022/06/22 02:57:57;;;;;;;10.55;5.53;;;;;;;14.29;78.14;101221.47;20929826;28;20044;-67
2022/06/22 03:08:20;;;;;;;9.73;6.47;;;;;;;14.16;78.54;101215.44;20938353;28;20044;-67
2022/06/22 03:18:43;;;;;;;14.55;7.95;;;;;;;14.04;79.23;101216.31;20945196;28;20055;-65
2022/06/22 03:29:22;;;;;;;15.32;7.72;;;;;;;13.98;79.82;101227.22;20944269;28;20059;-65
2022/06/22 03:39:52;;;;;;;11.60;7.93;;;;;;;13.84;80.78;101219.53;20952118;28;20059;-66
2022/06/22 03:50:34;;;;;;;15.43;8.40;;;;;;;13.77;80.78;101229.59;20955345;28;20055;-66
2022/06/22 04:00:58;;;;;;;12.82;9.40;;;;;;;13.84;79.62;101220.38;20940305;28;20424;-65
2022/06/22 04:11:37;;;;;;;13.55;10.38;;;;;;;14.08;80.68;101239.56;20932802;28;20169;-65
2022/06/22 04:22:22;;;;;;;15.65;10.70;;;;;;;14.27;83.21;101207.63;20953066;28;20068;-65
2022/06/22 04:32:50;;;;;;;16.80;10.35;;;;;;;14.32;81.41;101226.50;20948845;28;20095;-65
2022/06/22 04:43:12;;;;;;;15.65;9.95;;;;;;;14.43;82.46;101213.41;20962745;28;20041;-66
2022/06/22 04:53:39;;;;;;;16.92;9.77;;;;;;;14.68;79.69;101208.84;20953873;28;20144;-66
2022/06/22 05:04:08;;;;;;;18.63;10.45;;;;;;;14.82;83.11;101200.78;20937182;28;20044;-65
2022/06/22 05:14:32;;;;;;;17.38;10.05;;;;;;;14.91;80.43;101190.41;20938621;28;20144;-65
2022/06/22 05:25:00;;;;;;;17.48;8.88;;;;;;;15.22;79.73;101183.63;20949170;28;20052;-66
2022/06/22 05:35:28;;;;;;;14.73;7.80;;;;;;;15.49;78.95;101177.06;20927411;28;20519;-65
2022/06/22 05:45:55;;;;;;;11.90;6.65;;;;;;;15.75;77.97;101186.34;20924635;28;20051;-65
2022/06/22 05:56:20;;;;;;;10.02;5.75;;;;;;;15.98;76.99;101209.00;20930097;28;20091;-66
2022/06/22 06:06:44;;;;;;;13.60;5.45;;;;;;;16.24;74.80;101228.78;20941876;28;20389;-65
2022/06/22 06:17:15;;;;;;;13.95;4.30;;;;;;;16.47;73.86;101249.66;20945744;28;20044;-65
2022/06/22 06:27:39;;;;;;;;;;;;;;;16.80;78.44;101255.59;20945978;28;20138;-65
2022/06/22 06:38:53;;;;;;;6.45;3.17;;;;;;;17.15;75.14;101250.84;20928393;28;19927;-65
2022/06/22 06:49:21;;;;;;;6.00;3.05;;;;;;;17.33;71.03;101241.38;20867540;28;20052;-66
2022/06/22 06:59:46;;;;;;;10.45;3.47;;;;;;;17.51;70.23;101242.44;20922361;28;20068;-65
2022/06/22 07:10:25;;;;;;;7.80;4.28;;;;;;;17.79;70.64;101242.53;20947857;28;20048;-65
2022/06/22 07:20:54;;;;;;;6.70;2.72;;;;;;;18.03;69.76;101239.56;20950113;28;20158;-65
2022/06/22 07:31:27;;;;;;;9.57;3.25;;;;;;;18.37;69.83;101225.88;20975148;28;20557;-65
2022/06/22 07:41:49;;;;;;;8.38;2.70;;;;;;;18.65;67.82;101240.88;20942327;28;20036;-64
2022/06/22 07:52:16;;;;;;;4.57;2.35;;;;;;;18.90;66.71;101241.13;20949102;28;20044;-65
2022/06/22 08:03:10;;;;;;;6.55;2.40;;;;;;;19.09;66.88;101237.59;20944460;28;20047;-65
2022/06/22 08:13:47;;;;;;;5.45;2.25;;;;;;;19.34;66.43;101237.00;20920595;28;20047;-65
2022/06/22 08:24:12;;;;;;;7.10;2.38;;;;;;;19.39;64.46;101248.81;20956510;28;20037;-65
2022/06/22 08:34:39;;;;;;;11.85;2.55;;;;;;;19.80;63.97;101261.56;20953705;28;20076;-65
2022/06/22 08:45:25;;;;;;;5.80;2.25;;;;;;;20.01;63.35;101264.84;20931700;28;20159;-65
2022/06/22 08:56:16;;;;;;;5.65;2.70;;;;;;;20.32;62.26;101259.06;20925839;28;20408;-65
2022/06/22 09:07:10;;;;;;;7.35;2.95;;;;;;;20.62;60.24;101248.06;20932762;28;20045;-65
2022/06/22 09:18:02;;;;;;;7.88;2.78;;;;;;;20.83;60.05;101249.44;20945459;28;20408;-66
2022/06/22 09:28:59;;;;;;;8.75;3.88;;;;;;;20.86;60.65;101264.22;20941303;28;20056;-66
2022/06/22 09:39:34;;;;;;;8.65;3.47;;;;;;;20.91;60.41;101269.88;20938028;28;20059;-66
2022/06/22 09:50:28;;;;;;;8.95;3.10;;;;;;;21.04;59.91;101265.84;20935264;28;20041;-66
2022/06/22 10:01:12;;;;;;;6.60;2.65;;;;;;;21.43;59.45;101275.91;20944924;28;20048;-67
2022/06/22 10:11:44;;;;;;;10.43;3.83;;;;;;;21.79;56.16;101266.00;20949695;28;20124;-66
2022/06/22 10:22:18;;;;;;;9.10;2.85;;;;;;;21.75;60.13;101275.25;20941397;28;20139;-66
2022/06/22 10:33:05;;;;;;;7.47;2.78;;;;;;;22.03;59.48;101274.03;20946519;28;20048;-67
2022/06/22 10:55:08;;;;;;;6.57;2.38;;;;;;;23.04;53.79;101273.53;20937867;28;20049;-65
2022/06/22 11:06:01;;;;;;;7.72;2.35;;;;;;;23.29;52.00;101272.53;20928689;28;20055;-66
2022/06/22 11:16:40;;;;;;;5.10;2.05;;;;;;;23.90;50.81;101262.03;20941731;28;20144;-64
2022/06/22 11:38:41;;;;;;;4.53;2.15;;;;;;;24.50;51.01;101251.38;20934846;28;20049;-67
2022/06/22 11:49:21;;;;;;;;;;;;;;;24.70;56.03;101225.91;20931353;28;20044;-67
2022/06/22 11:59:43;;;;;;;;;;;;;;;24.93;56.54;101234.69;20948629;28;19920;-68
2022/06/22 12:10:15;;;;;;;4.53;1.70;;;;;;;25.11;48.42;101219.16;20968823;28;19928;-67
2022/06/22 12:20:42;;;;;;;;;;;;;;;24.77;56.72;101210.81;20956052;28;20145;-67
2022/06/22 12:31:07;;;;;;;;;;;;;;;24.19;54.12;101192.94;20992958;28;20281;-66
2022/06/22 12:41:32;;;;;;;;;;;;;;;23.90;59.94;101182.13;20947698;28;19920;-65
2022/06/22 12:51:57;;;;;;;;;;;;;;;23.77;59.74;101171.22;20954275;28;19920;-68
2022/06/22 13:02:20;;;;;;;;;;;;;;;23.58;58.66;101174.28;20968044;28;19928;-66
2022/06/22 13:12:55;;;;;;;;;;;;;;;23.54;57.78;101176.47;20990256;28;19920;-66
2022/06/22 13:23:43;;;;;;;3.78;1.80;;;;;;;23.63;51.39;101143.47;20974711;28;19924;-66
2022/06/22 13:34:10;;;;;;;3.63;1.85;;;;;;;23.68;56.23;101154.41;20967984;28;20056;-66
2022/06/22 13:44:53;;;;;;;4.95;1.70;;;;;;;23.46;50.08;101154.38;20944151;28;20040;-66
2022/06/22 13:55:21;;;;;;;9.18;2.00;;;;;;;23.46;58.52;101141.06;20937245;28;20048;-65
2022/06/22 14:05:49;;;;;;;5.35;2.33;;;;;;;23.57;56.27;101151.34;20952326;28;20055;-66
2022/06/22 14:16:26;;;;;;;6.90;2.30;;;;;;;23.66;55.33;101136.97;20925760;28;20056;-66
2022/06/22 14:27:14;;;;;;;3.30;1.92;;;;;;;23.61;51.26;101134.00;20915026;28;20472;-65
2022/06/22 14:37:43;;;;;;;7.07;2.30;;;;;;;23.64;55.90;101138.97;20929976;28;20056;-65
2022/06/22 14:48:08;;;;;;;8.23;2.20;;;;;;;23.58;57.51;101142.31;20904904;28;20044;-65
2022/06/22 14:58:44;;;;;;;8.50;2.40;;;;;;;23.70;56.02;101122.31;20914746;28;20051;-65
2022/06/22 15:09:40;;;;;;;9.38;2.38;;;;;;;23.76;51.90;101119.81;20925613;28;20044;-65
2022/06/22 15:20:19;;;;;;;8.20;2.20;;;;;;;23.82;53.53;101110.28;20926459;28;20041;-66
2022/06/22 15:30:49;;;;;;;8.57;2.67;;;;;;;23.96;56.07;101128.16;20948674;28;20057;-66
2022/06/22 15:41:30;;;;;;;7.18;2.28;;;;;;;23.86;53.44;101111.59;20933865;28;20052;-66
2022/06/22 15:51:57;;;;;;;10.43;2.58;;;;;;;23.94;58.65;101111.53;20935491;28;20615;-65
2022/06/22 16:02:42;;;;;;;7.28;3.10;;;;;;;23.99;59.69;101114.50;20943354;28;20048;-64
2022/06/22 16:13:27;;;;;;;6.57;2.80;;;;;;;24.25;59.22;101122.94;20925127;28;20048;-65
2022/06/22 16:24:11;;;;;;;14.48;2.90;;;;;;;24.85;58.49;101116.53;20934525;28;20051;-65
2022/06/22 16:35:05;;;;;;;8.80;2.75;;;;;;;25.16;57.43;101142.09;20931201;28;20064;-65
2022/06/22 16:45:30;;;;;;;9.75;2.88;;;;;;;25.15;61.07;101150.25;20925767;28;20519;-64
2022/06/22 16:55:56;;;;;;;8.38;2.20;;;;;;;25.18;61.12;101150.72;20939635;28;20362;-64
2022/06/22 17:06:20;;;;;;;;;;;;;;;25.04;61.83;101156.84;20929367;28;20094;-64
2022/06/22 17:17:05;;;;;;;;;;;;;;;24.91;63.62;101164.66;20931444;28;19924;-65
2022/06/22 17:27:36;;;;;;;;;;;;;;;24.75;63.34;101175.50;20912682;28;20009;-64
2022/06/22 17:37:57;;;;;;;;;;;;;;;24.03;65.39;101182.38;20931911;28;20010;-64
2022/06/22 17:48:24;;;;;;;5.60;1.95;;;;;;;23.48;64.23;101186.97;20927255;28;19929;-63
2022/06/22 17:59:15;;;;;;;4.82;1.90;;;;;;;23.09;62.03;101180.78;20938781;28;20044;-66
2022/06/22 18:09:58;;;;;;;7.82;2.00;;;;;;;22.73;62.41;101187.47;20931256;28;20049;-66
2022/06/22 18:20:36;;;;;;;5.93;1.95;;;;;;;22.36;63.42;101185.47;20932429;28;20132;-68
2022/06/22 18:31:16;;;;;;;6.35;2.00;;;;;;;21.88;65.78;101188.03;20936941;28;20055;-68
2022/06/22 18:52:45;;;;;;;3.95;1.67;;;;;;;21.31;66.13;101190.63;20936411;28;20413;-67
2022/06/22 19:03:20;;;;;;;2.63;1.40;;;;;;;21.08;66.56;101192.97;20947107;28;20057;-68
2022/06/22 19:13:46;;;;;;;4.43;1.80;;;;;;;20.90;67.44;101186.88;20947544;28;20043;-67
2022/06/22 19:24:29;;;;;;;3.92;1.70;;;;;;;20.65;68.25;101195.63;20945173;28;20037;-67
2022/06/22 19:35:09;;;;;;;3.72;1.50;;;;;;;20.46;68.55;101209.03;20980360;28;20411;-68
2022/06/22 19:45:44;;;;;;;2.87;1.20;;;;;;;20.26;69.32;101196.09;20934410;28;20052;-67
2022/06/22 19:56:25;;;;;;;1.63;1.10;;;;;;;20.08;69.41;101202.38;20933903;28;20163;-67
2022/06/22 20:06:51;;;;;;;;;;;;;;;19.78;71.76;101215.91;20939349;28;20047;-67
2022/06/22 20:17:33;;;;;;;2.20;1.17;;;;;;;19.70;70.71;101205.22;20940517;28;19926;-68
2022/06/22 20:28:39;;;;;;;2.88;1.17;;;;;;;19.62;70.20;101228.97;20963818;28;20059;-67
2022/06/22 20:39:01;;;;;;;2.85;1.08;;;;;;;19.42;69.37;101230.00;20941298;28;20072;-68
2022/06/22 20:49:24;;;;;;;2.67;0.80;;;;;;;19.23;69.86;101240.63;20955015;28;20883;-68
2022/06/22 20:59:45;;;;;;;1.58;1.10;;;;;;;19.13;70.04;101231.91;20934976;28;20401;-68
2022/06/22 21:10:13;;;;;;;3.83;1.27;;;;;;;19.02;70.53;101247.91;20940445;28;20504;-68
2022/06/22 21:20:38;;;;;;;2.15;1.23;;;;;;;18.90;71.22;101254.34;20941006;28;20044;-68
2022/06/22 21:31:10;;;;;;;2.45;1.30;;;;;;;18.84;72.55;101239.03;20937162;28;20037;-70
2022/06/22 21:41:43;;;;;;;3.58;1.60;;;;;;;18.73;72.29;101241.84;20935362;28;20047;-68
2022/06/22 21:52:38;;;;;;;2.38;1.55;;;;;;;18.66;73.71;101243.34;20937828;28;20052;-68
2022/06/22 22:03:32;;;;;;;2.35;1.65;;;;;;;18.47;72.63;101248.66;20942963;28;20071;-69
2022/06/22 22:13:58;;;;;;;2.97;1.80;;;;;;;18.35;72.61;101250.72;20946550;28;20044;-68
2022/06/22 22:24:20;;;;;;;2.17;1.90;;;;;;;18.14;72.75;101252.63;20941886;28;20589;-69
2022/06/22 22:34:45;;;;;;;3.25;1.60;;;;;;;18.00;72.81;101247.72;20929922;28;20059;-69
2022/06/22 22:45:15;;;;;;;3.45;1.80;;;;;;;17.97;73.58;101253.28;20929944;28;20064;-69
2022/06/22 22:55:40;;;;;;;3.75;1.80;;;;;;;17.79;73.27;101246.97;20931938;28;20067;-68
2022/06/22 23:06:22;;;;;;;4.18;1.77;;;;;;;17.63;76.56;101259.81;20951753;28;20044;-68
2022/06/22 23:16:49;;;;;;;4.03;2.30;;;;;;;17.55;74.41;101251.75;20937271;28;20805;-69
2022/06/22 23:27:18;;;;;;;4.45;2.22;;;;;;;17.53;74.30;101272.13;20940714;28;20043;-69
2022/06/22 23:37:50;;;;;;;2.40;2.20;;;;;;;17.41;74.88;101286.38;20943632;28;20055;-69
2022/06/22 23:48:17;;;;;;;2.10;1.85;;;;;;;17.38;75.66;101284.00;20953849;28;20051;-68
2022/06/22 23:58:40;;;;;;;2.17;1.90;;;;;;;17.24;75.51;101279.03;20933509;28;20060;-68
